sensor_id;sensor_type;location;lat;lon;timestamp;temperature;humidity
24382;DHT22;12502;50.678;7.172;2023-05-24T00:04:32;10.30;99.90
24382;DHT22;12502;50.678;7.172;2023-05-24T00:09:34;10.30;99.90
24382;DHT22;12502;50.678;7.172;2023-05-24T00:14:36;10.10;99.90
24382;DHT22;12502;50.678;7.172;2023-05-24T00:19:37;10.00;99.90
24382;DHT22;12502;50.678;7.172;2023-05-24T00:24:39;10.00;99.90
24382;DHT22;12502;50.678;7.172;2023-05-24T00:29:41;10.00;99.90
24382;DHT22;12502;50.678;7.172;2023-05-24T00:34:43;10.00;99.90
24382;DHT22;12502;50.678;7.172;2023-05-24T00:39:44;10.00;99.90
24382;DHT22;12502;50.678;7.172;2023-05-24T00:44:46;9.80;99.90
24382;DHT22;12502;50.678;7.172;2023-05-24T00:49:48;9.70;99.90
24382;DHT22;12502;50.678;7.172;2023-05-24T00:54:49;9.60;99.90
24382;DHT22;12502;50.678;7.172;2023-05-24T00:59:52;9.50;99.90
24382;DHT22;12502;50.678;7.172;2023-05-24T01:04:53;9.50;99.90
24382;DHT22;12502;50.678;7.172;2023-05-24T01:10:02;9.50;99.90
24382;DHT22;12502;50.678;7.172;2023-05-24T01:15:24;9.40;99.90
24382;DHT22;12502;50.678;7.172;2023-05-24T01:20:28;9.20;99.90
24382;DHT22;12502;50.678;7.172;2023-05-24T01:30:34;9.20;99.90
24382;DHT22;12502;50.678;7.172;2023-05-24T01:35:37;9.00;99.90
24382;DHT22;12502;50.678;7.172;2023-05-24T01:40:41;9.00;99.90
24382;DHT22;12502;50.678;7.172;2023-05-24T01:50:58;8.90;99.90
24382;DHT22;12502;50.678;7.172;2023-05-24T01:56:02;8.80;99.90
24382;DHT22;12502;50.678;7.172;2023-05-24T02:01:05;8.90;99.90
24382;DHT22;12502;50.678;7.172;2023-05-24T02:06:07;8.60;99.90
24382;DHT22;12502;50.678;7.172;2023-05-24T02:11:09;8.70;99.90
24382;DHT22;12502;50.678;7.172;2023-05-24T02:16:10;8.60;99.90
24382;DHT22;12502;50.678;7.172;2023-05-24T02:21:12;8.30;99.90
24382;DHT22;12502;50.678;7.172;2023-05-24T02:26:14;8.20;99.90
24382;DHT22;12502;50.678;7.172;2023-05-24T02:31:18;8.30;99.90
24382;DHT22;12502;50.678;7.172;2023-05-24T02:36:20;8.40;99.90
24382;DHT22;12502;50.678;7.172;2023-05-24T02:41:23;8.30;99.90
24382;DHT22;12502;50.678;7.172;2023-05-24T02:46:26;8.20;99.90
24382;DHT22;12502;50.678;7.172;2023-05-24T02:51:28;8.10;99.90
24382;DHT22;12502;50.678;7.172;2023-05-24T02:56:30;8.00;99.90
24382;DHT22;12502;50.678;7.172;2023-05-24T03:01:32;7.70;99.90
24382;DHT22;12502;50.678;7.172;2023-05-24T03:31:13;7.50;99.90
24382;DHT22;12502;50.678;7.172;2023-05-24T03:36:15;7.40;99.90
24382;DHT22;12502;50.678;7.172;2023-05-24T03:46:51;6.90;99.90
24382;DHT22;12502;50.678;7.172;2023-05-24T03:51:53;7.00;99.90
24382;DHT22;12502;50.678;7.172;2023-05-24T03:57:00;7.20;99.90
24382;DHT22;12502;50.678;7.172;2023-05-24T04:07:43;7.20;99.90
24382;DHT22;12502;50.678;7.172;2023-05-24T04:12:47;7.20;99.90
24382;DHT22;12502;50.678;7.172;2023-05-24T04:35:05;7.30;99.90
24382;DHT22;12502;50.678;7.172;2023-05-24T04:40:08;7.50;99.90
24382;DHT22;12502;50.678;7.172;2023-05-24T04:45:11;7.60;99.90
24382;DHT22;12502;50.678;7.172;2023-05-24T04:50:12;7.70;99.90
24382;DHT22;12502;50.678;7.172;2023-05-24T04:55:33;7.70;99.90
24382;DHT22;12502;50.678;7.172;2023-05-24T05:00:37;7.90;99.90
24382;DHT22;12502;50.678;7.172;2023-05-24T05:05:39;8.00;99.90
24382;DHT22;12502;50.678;7.172;2023-05-24T05:11:14;8.10;99.90
24382;DHT22;12502;50.678;7.172;2023-05-24T05:16:16;8.10;99.90
24382;DHT22;12502;50.678;7.172;2023-05-24T05:21:18;8.20;99.90
24382;DHT22;12502;50.678;7.172;2023-05-24T05:26:27;8.40;99.90
24382;DHT22;12502;50.678;7.172;2023-05-24T05:31:29;8.50;99.90
24382;DHT22;12502;50.678;7.172;2023-05-24T05:36:31;8.60;99.90
24382;DHT22;12502;50.678;7.172;2023-05-24T05:41:42;8.60;99.90
24382;DHT22;12502;50.678;7.172;2023-05-24T05:46:46;8.90;99.90
24382;DHT22;12502;50.678;7.172;2023-05-24T05:57:51;9.10;99.90
24382;DHT22;12502;50.678;7.172;2023-05-24T06:02:54;9.40;99.90
24382;DHT22;12502;50.678;7.172;2023-05-24T06:08:00;9.40;99.90
24382;DHT22;12502;50.678;7.172;2023-05-24T06:19:04;9.40;99.90
24382;DHT22;12502;50.678;7.172;2023-05-24T06:30:11;9.60;99.90
24382;DHT22;12502;50.678;7.172;2023-05-24T06:35:21;9.70;99.90
24382;DHT22;12502;50.678;7.172;2023-05-24T06:40:40;9.70;99.90
24382;DHT22;12502;50.678;7.172;2023-05-24T06:51:10;10.00;99.90
24382;DHT22;12502;50.678;7.172;2023-05-24T06:56:12;10.20;99.90
24382;DHT22;12502;50.678;7.172;2023-05-24T07:01:14;10.30;99.90
24382;DHT22;12502;50.678;7.172;2023-05-24T07:06:17;10.40;99.90
24382;DHT22;12502;50.678;7.172;2023-05-24T07:16:47;10.30;99.90
24382;DHT22;12502;50.678;7.172;2023-05-24T07:21:49;10.20;99.90
24382;DHT22;12502;50.678;7.172;2023-05-24T07:26:51;10.50;99.90
24382;DHT22;12502;50.678;7.172;2023-05-24T07:31:54;11.00;99.90
24382;DHT22;12502;50.678;7.172;2023-05-24T07:36:57;10.90;99.90
24382;DHT22;12502;50.678;7.172;2023-05-24T07:42:06;11.00;99.90
24382;DHT22;12502;50.678;7.172;2023-05-24T07:53:00;11.20;99.90
24382;DHT22;12502;50.678;7.172;2023-05-24T07:58:03;10.80;99.90
24382;DHT22;12502;50.678;7.172;2023-05-24T08:09:08;10.80;99.90
24382;DHT22;12502;50.678;7.172;2023-05-24T08:14:10;11.50;99.90
24382;DHT22;12502;50.678;7.172;2023-05-24T08:19:13;11.70;99.90
24382;DHT22;12502;50.678;7.172;2023-05-24T08:24:15;11.60;99.90
24382;DHT22;12502;50.678;7.172;2023-05-24T08:34:47;11.90;99.90
24382;DHT22;12502;50.678;7.172;2023-05-24T08:39:55;12.30;99.90
24382;DHT22;12502;50.678;7.172;2023-05-24T09:08:34;12.50;99.90
24382;DHT22;12502;50.678;7.172;2023-05-24T09:13:36;12.60;99.90
24382;DHT22;12502;50.678;7.172;2023-05-24T09:18:39;12.60;99.90
24382;DHT22;12502;50.678;7.172;2023-05-24T09:23:45;12.50;99.90
24382;DHT22;12502;50.678;7.172;2023-05-24T09:28:47;12.60;99.90
24382;DHT22;12502;50.678;7.172;2023-05-24T09:33:48;12.70;99.90
24382;DHT22;12502;50.678;7.172;2023-05-24T09:39:06;12.60;99.90
24382;DHT22;12502;50.678;7.172;2023-05-24T09:44:11;12.80;99.90
24382;DHT22;12502;50.678;7.172;2023-05-24T09:49:13;12.80;99.90
24382;DHT22;12502;50.678;7.172;2023-05-24T09:54:16;12.80;99.90
24382;DHT22;12502;50.678;7.172;2023-05-24T09:59:20;12.70;99.90
24382;DHT22;12502;50.678;7.172;2023-05-24T10:04:31;12.80;99.90
24382;DHT22;12502;50.678;7.172;2023-05-24T10:09:33;13.00;99.90
24382;DHT22;12502;50.678;7.172;2023-05-24T10:14:35;12.70;99.90
24382;DHT22;12502;50.678;7.172;2023-05-24T10:19:38;12.90;99.90
24382;DHT22;12502;50.678;7.172;2023-05-24T10:24:45;13.00;99.90
24382;DHT22;12502;50.678;7.172;2023-05-24T10:29:52;13.00;99.90
24382;DHT22;12502;50.678;7.172;2023-05-24T10:35:00;13.30;99.90
24382;DHT22;12502;50.678;7.172;2023-05-24T10:40:02;13.50;99.90
24382;DHT22;12502;50.678;7.172;2023-05-24T10:45:28;13.80;99.90
24382;DHT22;12502;50.678;7.172;2023-05-24T10:50:32;13.60;99.90
24382;DHT22;12502;50.678;7.172;2023-05-24T10:55:34;13.80;99.90
24382;DHT22;12502;50.678;7.172;2023-05-24T11:00:42;13.80;99.90
24382;DHT22;12502;50.678;7.172;2023-05-24T11:05:58;13.90;99.90
24382;DHT22;12502;50.678;7.172;2023-05-24T11:11:25;13.90;99.90
24382;DHT22;12502;50.678;7.172;2023-05-24T11:16:31;13.80;99.90
24382;DHT22;12502;50.678;7.172;2023-05-24T11:21:34;13.50;99.90
24382;DHT22;12502;50.678;7.172;2023-05-24T11:26:36;13.60;99.90
24382;DHT22;12502;50.678;7.172;2023-05-24T11:31:37;13.80;99.90
24382;DHT22;12502;50.678;7.172;2023-05-24T11:36:44;14.50;99.90
24382;DHT22;12502;50.678;7.172;2023-05-24T11:41:46;14.50;99.90
24382;DHT22;12502;50.678;7.172;2023-05-24T11:46:48;14.40;99.90
24382;DHT22;12502;50.678;7.172;2023-05-24T11:51:51;14.30;99.90
24382;DHT22;12502;50.678;7.172;2023-05-24T11:56:53;14.30;99.90
24382;DHT22;12502;50.678;7.172;2023-05-24T12:01:57;14.80;99.90
24382;DHT22;12502;50.678;7.172;2023-05-24T12:07:00;14.50;99.90
24382;DHT22;12502;50.678;7.172;2023-05-24T12:12:02;14.20;99.90
24382;DHT22;12502;50.678;7.172;2023-05-24T12:17:05;14.00;99.90
24382;DHT22;12502;50.678;7.172;2023-05-24T12:22:14;13.70;99.90
24382;DHT22;12502;50.678;7.172;2023-05-24T12:27:16;13.60;99.90
24382;DHT22;12502;50.678;7.172;2023-05-24T12:32:18;13.50;99.90
24382;DHT22;12502;50.678;7.172;2023-05-24T12:37:20;13.40;99.90
24382;DHT22;12502;50.678;7.172;2023-05-24T12:48:09;13.50;99.90
24382;DHT22;12502;50.678;7.172;2023-05-24T12:53:14;13.50;99.90
24382;DHT22;12502;50.678;7.172;2023-05-24T12:58:15;13.50;99.90
24382;DHT22;12502;50.678;7.172;2023-05-24T13:03:17;13.80;99.90
24382;DHT22;12502;50.678;7.172;2023-05-24T13:08:28;13.90;99.90
24382;DHT22;12502;50.678;7.172;2023-05-24T13:13:30;13.90;99.90
24382;DHT22;12502;50.678;7.172;2023-05-24T13:18:33;13.80;99.90
24382;DHT22;12502;50.678;7.172;2023-05-24T13:35:12;13.80;99.90
24382;DHT22;12502;50.678;7.172;2023-05-24T13:40:13;13.90;99.90
24382;DHT22;12502;50.678;7.172;2023-05-24T13:45:19;14.00;99.90
24382;DHT22;12502;50.678;7.172;2023-05-24T13:50:21;14.20;99.90
24382;DHT22;12502;50.678;7.172;2023-05-24T13:55:24;14.10;99.90
24382;DHT22;12502;50.678;7.172;2023-05-24T14:00:34;14.10;99.90
24382;DHT22;12502;50.678;7.172;2023-05-24T14:17:01;14.10;99.90
24382;DHT22;12502;50.678;7.172;2023-05-24T14:22:03;14.10;99.90
24382;DHT22;12502;50.678;7.172;2023-05-24T14:27:48;14.10;99.90
24382;DHT22;12502;50.678;7.172;2023-05-24T14:32:59;14.00;99.90
24382;DHT22;12502;50.678;7.172;2023-05-24T14:38:02;14.30;99.90
24382;DHT22;12502;50.678;7.172;2023-05-24T14:43:07;14.30;99.90
24382;DHT22;12502;50.678;7.172;2023-05-24T14:48:11;14.40;99.90
24382;DHT22;12502;50.678;7.172;2023-05-24T14:53:13;14.40;99.90
24382;DHT22;12502;50.678;7.172;2023-05-24T14:58:15;14.30;99.90
24382;DHT22;12502;50.678;7.172;2023-05-24T15:03:17;14.60;99.90
24382;DHT22;12502;50.678;7.172;2023-05-24T15:08:19;14.50;99.90
24382;DHT22;12502;50.678;7.172;2023-05-24T15:13:21;14.40;99.90
24382;DHT22;12502;50.678;7.172;2023-05-24T15:18:25;14.80;99.90
24382;DHT22;12502;50.678;7.172;2023-05-24T15:23:28;15.10;99.90
24382;DHT22;12502;50.678;7.172;2023-05-24T15:28:30;15.10;99.90
24382;DHT22;12502;50.678;7.172;2023-05-24T15:33:31;15.10;99.90
24382;DHT22;12502;50.678;7.172;2023-05-24T15:38:33;14.80;99.90
24382;DHT22;12502;50.678;7.172;2023-05-24T15:43:35;14.90;99.90
24382;DHT22;12502;50.678;7.172;2023-05-24T15:48:37;15.20;99.90
24382;DHT22;12502;50.678;7.172;2023-05-24T15:53:39;15.50;99.90
24382;DHT22;12502;50.678;7.172;2023-05-24T15:58:41;15.50;99.90
24382;DHT22;12502;50.678;7.172;2023-05-24T16:03:42;15.40;99.90
24382;DHT22;12502;50.678;7.172;2023-05-24T16:08:45;15.10;99.90
24382;DHT22;12502;50.678;7.172;2023-05-24T16:13:49;14.90;99.90
24382;DHT22;12502;50.678;7.172;2023-05-24T16:18:50;14.90;99.90
24382;DHT22;12502;50.678;7.172;2023-05-24T16:23:52;14.80;99.90
24382;DHT22;12502;50.678;7.172;2023-05-24T16:28:54;15.00;99.90
24382;DHT22;12502;50.678;7.172;2023-05-24T16:33:56;14.90;99.90
24382;DHT22;12502;50.678;7.172;2023-05-24T16:38:59;14.80;99.90
24382;DHT22;12502;50.678;7.172;2023-05-24T16:44:01;14.90;99.90
24382;DHT22;12502;50.678;7.172;2023-05-24T16:49:02;14.80;99.90
24382;DHT22;12502;50.678;7.172;2023-05-24T16:54:05;14.80;99.90
24382;DHT22;12502;50.678;7.172;2023-05-24T16:59:08;14.80;99.90
24382;DHT22;12502;50.678;7.172;2023-05-24T17:04:10;14.60;99.90
24382;DHT22;12502;50.678;7.172;2023-05-24T17:09:12;14.50;99.90
24382;DHT22;12502;50.678;7.172;2023-05-24T17:14:15;14.60;99.90
24382;DHT22;12502;50.678;7.172;2023-05-24T17:19:16;14.50;99.90
24382;DHT22;12502;50.678;7.172;2023-05-24T17:24:20;14.50;99.90
24382;DHT22;12502;50.678;7.172;2023-05-24T17:29:25;14.50;99.90
24382;DHT22;12502;50.678;7.172;2023-05-24T17:34:27;14.40;99.90
24382;DHT22;12502;50.678;7.172;2023-05-24T17:39:28;14.30;99.90
24382;DHT22;12502;50.678;7.172;2023-05-24T17:44:30;14.30;99.90
24382;DHT22;12502;50.678;7.172;2023-05-24T17:49:32;14.20;99.90
24382;DHT22;12502;50.678;7.172;2023-05-24T17:54:35;14.20;99.90
24382;DHT22;12502;50.678;7.172;2023-05-24T17:59:36;14.20;99.90
24382;DHT22;12502;50.678;7.172;2023-05-24T18:04:39;14.10;99.90
24382;DHT22;12502;50.678;7.172;2023-05-24T18:09:42;14.10;99.90
24382;DHT22;12502;50.678;7.172;2023-05-24T18:14:44;14.00;99.90
24382;DHT22;12502;50.678;7.172;2023-05-24T18:19:52;13.90;99.90
24382;DHT22;12502;50.678;7.172;2023-05-24T18:24:54;13.80;99.90
24382;DHT22;12502;50.678;7.172;2023-05-24T18:29:56;13.90;99.90
24382;DHT22;12502;50.678;7.172;2023-05-24T18:35:01;13.80;99.90
24382;DHT22;12502;50.678;7.172;2023-05-24T18:40:03;13.80;99.90
24382;DHT22;12502;50.678;7.172;2023-05-24T18:45:05;13.70;99.90
24382;DHT22;12502;50.678;7.172;2023-05-24T18:50:07;13.70;99.90
24382;DHT22;12502;50.678;7.172;2023-05-24T18:55:10;13.50;99.90
24382;DHT22;12502;50.678;7.172;2023-05-24T19:00:12;13.30;99.90
24382;DHT22;12502;50.678;7.172;2023-05-24T19:05:14;13.40;99.90
24382;DHT22;12502;50.678;7.172;2023-05-24T19:10:16;13.30;99.90
24382;DHT22;12502;50.678;7.172;2023-05-24T19:15:18;13.20;99.90
24382;DHT22;12502;50.678;7.172;2023-05-24T19:20:20;13.10;99.90
24382;DHT22;12502;50.678;7.172;2023-05-24T19:25:24;13.10;99.90
24382;DHT22;12502;50.678;7.172;2023-05-24T19:30:25;12.90;99.90
24382;DHT22;12502;50.678;7.172;2023-05-24T19:35:28;13.00;99.90
24382;DHT22;12502;50.678;7.172;2023-05-24T19:40:30;12.90;99.90
24382;DHT22;12502;50.678;7.172;2023-05-24T19:45:32;12.90;99.90
24382;DHT22;12502;50.678;7.172;2023-05-24T19:55:39;12.50;99.90
24382;DHT22;12502;50.678;7.172;2023-05-24T20:00:42;12.40;99.90
24382;DHT22;12502;50.678;7.172;2023-05-24T20:05:43;12.30;99.90
24382;DHT22;12502;50.678;7.172;2023-05-24T20:10:52;12.20;99.90
24382;DHT22;12502;50.678;7.172;2023-05-24T20:15:55;12.20;99.90
24382;DHT22;12502;50.678;7.172;2023-05-24T20:20:57;12.10;99.90
24382;DHT22;12502;50.678;7.172;2023-05-24T20:25:59;12.10;99.90
24382;DHT22;12502;50.678;7.172;2023-05-24T20:31:01;12.10;99.90
24382;DHT22;12502;50.678;7.172;2023-05-24T20:36:03;12.10;99.90
24382;DHT22;12502;50.678;7.172;2023-05-24T20:41:05;12.00;99.90
24382;DHT22;12502;50.678;7.172;2023-05-24T20:46:07;12.00;99.90
24382;DHT22;12502;50.678;7.172;2023-05-24T20:51:23;12.00;99.90
24382;DHT22;12502;50.678;7.172;2023-05-24T20:56:37;11.90;99.90
24382;DHT22;12502;50.678;7.172;2023-05-24T21:01:39;11.90;99.90
24382;DHT22;12502;50.678;7.172;2023-05-24T21:06:41;11.80;99.90
24382;DHT22;12502;50.678;7.172;2023-05-24T21:11:43;11.60;99.90
24382;DHT22;12502;50.678;7.172;2023-05-24T21:16:45;11.50;99.90
24382;DHT22;12502;50.678;7.172;2023-05-24T21:21:47;11.50;99.90
24382;DHT22;12502;50.678;7.172;2023-05-24T21:26:49;11.30;99.90
24382;DHT22;12502;50.678;7.172;2023-05-24T21:31:51;11.40;99.90
24382;DHT22;12502;50.678;7.172;2023-05-24T21:36:52;11.30;99.90
24382;DHT22;12502;50.678;7.172;2023-05-24T21:41:54;11.20;99.90
24382;DHT22;12502;50.678;7.172;2023-05-24T21:46:57;11.10;99.90
24382;DHT22;12502;50.678;7.172;2023-05-24T21:51:59;10.90;99.90
24382;DHT22;12502;50.678;7.172;2023-05-24T21:57:01;10.90;99.90
24382;DHT22;12502;50.678;7.172;2023-05-24T22:02:02;10.60;99.90
24382;DHT22;12502;50.678;7.172;2023-05-24T22:07:04;10.40;99.90
24382;DHT22;12502;50.678;7.172;2023-05-24T22:12:06;10.40;99.90
24382;DHT22;12502;50.678;7.172;2023-05-24T22:17:09;10.30;99.90
24382;DHT22;12502;50.678;7.172;2023-05-24T22:22:11;10.50;99.90
24382;DHT22;12502;50.678;7.172;2023-05-24T22:27:14;10.40;99.90
24382;DHT22;12502;50.678;7.172;2023-05-24T22:32:17;10.30;99.90
24382;DHT22;12502;50.678;7.172;2023-05-24T22:37:20;10.30;99.90
24382;DHT22;12502;50.678;7.172;2023-05-24T22:42:21;10.10;99.90
24382;DHT22;12502;50.678;7.172;2023-05-24T22:47:23;9.90;99.90
24382;DHT22;12502;50.678;7.172;2023-05-24T22:52:30;9.80;99.90
24382;DHT22;12502;50.678;7.172;2023-05-24T22:57:34;9.80;99.90
24382;DHT22;12502;50.678;7.172;2023-05-24T23:02:37;9.70;99.90
24382;DHT22;12502;50.678;7.172;2023-05-24T23:07:38;9.60;99.90
24382;DHT22;12502;50.678;7.172;2023-05-24T23:12:40;9.70;99.90
24382;DHT22;12502;50.678;7.172;2023-05-24T23:17:42;9.70;99.90
24382;DHT22;12502;50.678;7.172;2023-05-24T23:22:44;9.60;99.90
24382;DHT22;12502;50.678;7.172;2023-05-24T23:27:47;9.50;99.90
24382;DHT22;12502;50.678;7.172;2023-05-24T23:32:49;9.50;99.90
24382;DHT22;12502;50.678;7.172;2023-05-24T23:37:51;9.40;99.90
24382;DHT22;12502;50.678;7.172;2023-05-24T23:42:54;9.10;99.90
24382;DHT22;12502;50.678;7.172;2023-05-24T23:47:56;9.10;99.90
24382;DHT22;12502;50.678;7.172;2023-05-24T23:52:58;9.00;99.90
24382;DHT22;12502;50.678;7.172;2023-05-24T23:57:59;9.00;99.90
